Time;durP1;ratioP1;P1;durP2;ratioP2;P2;SDS_P1;SDS_P2;PMS_P1;PMS_P2;Temp;Humidity;BMP_temperature;BMP_pressure;BME280_temperature;BME280_humidity;BME280_pressure;Samples;Min_cycle;Max_cycle;Signal;HPM_P1;HPM_P2
2022/10/28 00:00:48;;;;;;;10.68;7.03;;;15.00;99.90;;;;;;5048376;28;20825;-82
2022/10/28 00:03:14;;;;;;;8.45;6.13;;;15.10;99.90;;;;;;5046277;28;20052;-82
2022/10/28 00:05:40;;;;;;;10.07;6.68;;;15.10;99.90;;;;;;5048106;28;20045;-83
2022/10/28 00:08:05;;;;;;;7.93;5.47;;;15.00;99.90;;;;;;5052420;28;20065;-82
2022/10/28 00:10:31;;;;;;;8.13;4.70;;;15.10;99.90;;;;;;5048859;28;20180;-82
2022/10/28 00:12:57;;;;;;;10.32;6.70;;;15.10;99.90;;;;;;5045562;28;20037;-80
2022/10/28 00:15:22;;;;;;;11.20;6.88;;;15.10;99.90;;;;;;5053279;28;20468;-81
2022/10/28 00:17:48;;;;;;;10.63;6.28;;;15.10;99.90;;;;;;5057962;28;20495;-81
2022/10/28 00:20:14;;;;;;;12.20;6.72;;;15.10;99.90;;;;;;5050779;28;20552;-80
2022/10/28 00:22:41;;;;;;;10.02;7.07;;;15.10;99.90;;;;;;5052101;28;20832;-78
2022/10/28 00:25:07;;;;;;;18.38;9.00;;;15.20;99.90;;;;;;5045590;28;20141;-79
2022/10/28 00:27:33;;;;;;;8.02;5.32;;;15.20;99.90;;;;;;5045858;28;20079;-82
2022/10/28 00:29:59;;;;;;;12.63;7.70;;;15.20;99.90;;;;;;5035942;28;20155;-81
2022/10/28 00:32:24;;;;;;;9.55;6.22;;;15.20;99.90;;;;;;5049884;28;20044;-81
2022/10/28 00:34:50;;;;;;;10.23;6.13;;;15.10;99.90;;;;;;5044891;28;20182;-81
2022/10/28 00:37:15;;;;;;;8.73;5.63;;;15.10;99.90;;;;;;5041222;28;20045;-78
2022/10/28 00:39:41;;;;;;;16.15;6.82;;;15.10;99.90;;;;;;5052549;28;20060;-80
2022/10/28 00:42:10;;;;;;;7.43;4.82;;;15.10;99.90;;;;;;5060455;28;20102;-81
2022/10/28 00:44:42;;;;;;;10.48;6.50;;;15.10;99.90;;;;;;5045594;28;20099;-80
2022/10/28 00:47:23;;;;;;;8.90;6.87;;;15.10;99.90;;;;;;5056150;28;20044;-81
2022/10/28 00:49:51;;;;;;;9.68;6.45;;;15.00;99.90;;;;;;5059030;28;20084;-79
2022/10/28 00:52:26;;;;;;;10.23;6.72;;;15.10;99.90;;;;;;5054982;28;20056;-81
2022/10/28 00:54:52;;;;;;;8.95;7.63;;;15.10;99.90;;;;;;5046834;28;20645;-80
2022/10/28 00:57:23;;;;;;;13.35;8.02;;;15.10;99.90;;;;;;5052968;28;20049;-80
2022/10/28 00:59:51;;;;;;;13.77;7.68;;;15.20;99.90;;;;;;5048326;28;20056;-79
2022/10/28 01:02:18;;;;;;;9.50;7.10;;;15.20;99.90;;;;;;5053831;28;20041;-81
2022/10/28 01:04:44;;;;;;;13.00;8.55;;;15.20;99.90;;;;;;5053207;28;20080;-80
2022/10/28 01:07:11;;;;;;;10.10;7.00;;;15.20;99.90;;;;;;5053509;28;20041;-80
2022/10/28 01:09:38;;;;;;;12.07;8.30;;;15.20;99.90;;;;;;5047964;28;20070;-77
2022/10/28 01:12:22;;;;;;;10.52;7.38;;;15.20;99.90;;;;;;5039577;28;20056;-81
2022/10/28 01:15:03;;;;;;;11.32;7.55;;;15.20;99.90;;;;;;5048274;28;20083;-81
2022/10/28 01:17:47;;;;;;;11.10;7.78;;;15.20;99.90;;;;;;5044010;28;20057;-80
2022/10/28 01:21:09;;;;;;;11.70;7.15;;;15.20;99.90;;;;;;5047352;28;20082;-79
2022/10/28 01:23:57;;;;;;;10.93;7.20;;;15.20;99.90;;;;;;5053630;28;20048;-79
2022/10/28 01:26:44;;;;;;;11.68;7.85;;;15.20;99.90;;;;;;5053392;28;20048;-81
2022/10/28 01:29:47;;;;;;;18.98;7.90;;;15.20;99.90;;;;;;5045075;28;20083;-80
2022/10/28 01:32:29;;;;;;;;;;;15.10;99.90;;;;;;5040767;28;20048;-80
2022/10/28 01:35:03;;;;;;;12.15;8.07;;;15.10;99.90;;;;;;5042175;28;19977;-80
2022/10/28 01:37:39;;;;;;;14.05;8.60;;;15.10;99.90;;;;;;5052783;28;20072;-80
2022/10/28 01:40:31;;;;;;;16.77;8.73;;;15.10;99.90;;;;;;5051569;28;20122;-81
2022/10/28 01:43:04;;;;;;;12.35;8.05;;;15.10;99.90;;;;;;5047342;28;20057;-79
2022/10/28 01:45:41;;;;;;;13.30;7.80;;;15.10;99.90;;;;;;5054534;28;20084;-81
2022/10/28 01:48:30;;;;;;;10.13;8.63;;;15.10;99.90;;;;;;5049922;28;20053;-80
2022/10/28 01:51:01;;;;;;;15.73;8.75;;;15.20;99.90;;;;;;5046994;28;20056;-78
2022/10/28 01:53:33;;;;;;;11.63;8.30;;;15.10;99.90;;;;;;5047611;28;20060;-80
2022/10/28 01:56:05;;;;;;;20.80;9.85;;;15.20;99.90;;;;;;5053194;28;20049;-80
2022/10/28 01:58:32;;;;;;;13.95;9.02;;;15.20;99.90;;;;;;5036415;28;20155;-81
2022/10/28 02:01:00;;;;;;;12.20;7.70;;;15.20;99.90;;;;;;5050783;28;20045;-78
2022/10/28 02:03:27;;;;;;;15.65;8.82;;;15.10;99.90;;;;;;5051386;28;20048;-82
2022/10/28 02:05:55;;;;;;;13.40;8.98;;;15.10;99.90;;;;;;5052516;28;20075;-81
2022/10/28 02:08:28;;;;;;;12.20;8.23;;;15.10;99.90;;;;;;5043945;28;20041;-82
2022/10/28 02:11:03;;;;;;;12.43;8.93;;;15.20;99.90;;;;;;5042437;28;20076;-80
2022/10/28 02:13:44;;;;;;;12.25;8.93;;;15.20;99.90;;;;;;5039736;28;20056;-81
2022/10/28 02:16:28;;;;;;;13.85;8.32;;;15.10;99.90;;;;;;5039541;28;20648;-81
2022/10/28 02:19:11;;;;;;;16.00;8.10;;;15.10;99.90;;;;;;5051137;28;20036;-81
2022/10/28 02:22:19;;;;;;;10.18;7.40;;;15.00;99.90;;;;;;5053075;28;20156;-80
2022/10/28 02:25:08;;;;;;;8.80;6.57;;;14.90;99.90;;;;;;5033284;28;20065;-81
2022/10/28 02:27:56;;;;;;;13.93;7.38;;;14.80;99.90;;;;;;5047293;28;20056;-80
2022/10/28 02:30:33;;;;;;;13.43;7.20;;;14.70;99.90;;;;;;5056610;28;20037;-80
2022/10/28 02:33:02;;;;;;;13.52;8.60;;;14.60;99.90;;;;;;5053709;28;20048;-81
2022/10/28 02:35:47;;;;;;;9.00;7.78;;;14.60;99.90;;;;;;5050773;28;20502;-81
2022/10/28 02:38:19;;;;;;;8.00;6.75;;;14.50;99.90;;;;;;5048864;28;20567;-79
2022/10/28 02:40:50;;;;;;;7.97;6.10;;;14.40;99.90;;;;;;5041877;28;20611;-81
2022/10/28 02:43:18;;;;;;;7.68;6.60;;;14.30;99.90;;;;;;5042739;28;20655;-80
2022/10/28 02:45:48;;;;;;;10.73;6.53;;;14.20;99.90;;;;;;5048856;28;20153;-83
2022/10/28 02:48:30;;;;;;;10.27;5.68;;;14.20;99.90;;;;;;5050855;28;20766;-80
2022/10/28 02:51:11;;;;;;;9.20;7.25;;;14.20;99.90;;;;;;5056051;28;20099;-79
2022/10/28 02:54:03;;;;;;;11.60;7.53;;;14.10;99.90;;;;;;5053833;28;20456;-81
2022/10/28 02:56:34;;;;;;;11.10;6.82;;;14.20;99.90;;;;;;5054541;28;20056;-80
2022/10/28 02:58:59;;;;;;;10.82;7.28;;;14.10;99.90;;;;;;5045871;28;20048;-82
2022/10/28 03:01:25;;;;;;;11.88;7.75;;;14.10;99.90;;;;;;5053453;28;20503;-81
2022/10/28 03:03:51;;;;;;;10.52;7.60;;;14.10;99.90;;;;;;5050564;28;20080;-80
2022/10/28 03:06:17;;;;;;;8.77;5.90;;;14.10;99.90;;;;;;5054231;28;20148;-78
2022/10/28 03:08:42;;;;;;;13.25;8.15;;;14.10;99.90;;;;;;5052967;28;20045;-80
2022/10/28 03:11:08;;;;;;;12.98;8.32;;;14.00;99.90;;;;;;5054994;28;20135;-80
2022/10/28 03:13:34;;;;;;;14.73;8.50;;;14.00;99.90;;;;;;5064378;28;20090;-82
2022/10/28 03:15:59;;;;;;;10.07;8.00;;;13.90;99.90;;;;;;5045627;28;20053;-81
2022/10/28 03:18:25;;;;;;;10.90;8.60;;;13.80;99.90;;;;;;5045491;28;20176;-81
2022/10/28 03:20:51;;;;;;;14.43;8.02;;;13.70;99.90;;;;;;5053672;28;20076;-83
2022/10/28 03:23:16;;;;;;;13.27;8.43;;;13.60;99.90;;;;;;5051681;28;21264;-78
2022/10/28 03:25:42;;;;;;;7.40;6.40;;;13.60;99.90;;;;;;5048406;28;20079;-81
2022/10/28 03:28:08;;;;;;;13.93;7.35;;;13.60;99.90;;;;;;5052150;28;20080;-81
2022/10/28 03:30:33;;;;;;;9.25;7.03;;;13.60;99.90;;;;;;5047809;28;20086;-80
2022/10/28 03:32:59;;;;;;;9.90;7.35;;;13.60;99.90;;;;;;5046766;28;20610;-80
2022/10/28 03:35:24;;;;;;;12.80;7.85;;;13.60;99.90;;;;;;5051962;28;20563;-81
2022/10/28 03:37:50;;;;;;;11.73;8.48;;;13.60;99.90;;;;;;5049692;28;20041;-81
2022/10/28 03:40:16;;;;;;;9.77;8.38;;;13.60;99.90;;;;;;5050166;28;20739;-78
2022/10/28 03:42:42;;;;;;;10.57;8.60;;;13.60;99.90;;;;;;5050268;28;20051;-81
2022/10/28 03:45:08;;;;;;;17.20;9.93;;;13.60;99.90;;;;;;5050233;28;20059;-83
2022/10/28 03:47:35;;;;;;;11.88;8.70;;;13.60;99.90;;;;;;5051961;28;20837;-80
2022/10/28 03:50:01;;;;;;;14.57;9.15;;;13.60;99.90;;;;;;5046925;28;20634;-81
2022/10/28 03:52:27;;;;;;;14.05;9.02;;;13.60;99.90;;;;;;5048460;28;20137;-81
2022/10/28 03:54:53;;;;;;;11.98;9.05;;;13.50;99.90;;;;;;5052533;28;20040;-81
2022/10/28 03:57:18;;;;;;;10.18;7.10;;;13.50;99.90;;;;;;5050627;28;20133;-81
2022/10/28 03:59:44;;;;;;;15.63;9.30;;;13.50;99.90;;;;;;5053380;28;20106;-82
2022/10/28 04:02:09;;;;;;;13.82;8.73;;;13.50;99.90;;;;;;5049955;28;20080;-79
2022/10/28 04:04:35;;;;;;;12.45;7.95;;;13.50;99.90;;;;;;5049806;28;20044;-81
2022/10/28 04:07:01;;;;;;;12.52;8.45;;;13.50;99.90;;;;;;5053317;28;20040;-81
2022/10/28 04:09:27;;;;;;;10.80;8.80;;;13.50;99.90;;;;;;5053510;28;20476;-81
2022/10/28 04:11:52;;;;;;;10.65;8.05;;;13.40;99.90;;;;;;5049759;28;20128;-81
2022/10/28 04:14:18;;;;;;;13.50;8.90;;;13.40;99.90;;;;;;5052537;28;20136;-82
2022/10/28 04:16:43;;;;;;;10.75;7.68;;;13.40;99.90;;;;;;5045550;28;20080;-81
2022/10/28 04:19:09;;;;;;;11.23;7.38;;;13.30;99.90;;;;;;5040095;28;20052;-80
2022/10/28 04:21:35;;;;;;;15.95;9.02;;;13.30;99.90;;;;;;5052631;28;20558;-81
2022/10/28 04:24:00;;;;;;;10.98;7.07;;;13.30;99.90;;;;;;5039993;28;20049;-81
2022/10/28 04:26:26;;;;;;;14.50;8.45;;;13.30;99.90;;;;;;5049888;28;20045;-81
2022/10/28 04:28:52;;;;;;;12.05;8.18;;;13.30;99.90;;;;;;5050707;28;20048;-82
2022/10/28 04:31:17;;;;;;;14.77;9.48;;;13.30;99.90;;;;;;5040928;28;20052;-82
2022/10/28 04:33:43;;;;;;;11.30;7.95;;;13.30;99.90;;;;;;5043579;28;20058;-80
2022/10/28 04:36:09;;;;;;;13.75;8.68;;;13.30;99.90;;;;;;5048652;28;20052;-83
2022/10/28 04:38:34;;;;;;;12.10;7.65;;;13.30;99.90;;;;;;5049588;28;20480;-82
2022/10/28 04:41:00;;;;;;;17.35;8.98;;;13.30;99.90;;;;;;5044919;28;20045;-83
2022/10/28 04:43:26;;;;;;;13.13;9.18;;;13.30;99.90;;;;;;5045690;28;20080;-83
2022/10/28 04:45:51;;;;;;;12.18;7.47;;;13.30;99.90;;;;;;5046371;28;20556;-82
2022/10/28 04:48:17;;;;;;;11.60;7.40;;;13.30;99.90;;;;;;5046160;28;20448;-83
2022/10/28 04:50:43;;;;;;;12.38;9.68;;;13.30;99.90;;;;;;5049117;28;20409;-83
2022/10/28 04:53:09;;;;;;;14.82;10.20;;;13.30;99.90;;;;;;5044786;28;20057;-83
2022/10/28 04:55:34;;;;;;;14.32;8.38;;;13.30;99.90;;;;;;5039225;28;20056;-83
2022/10/28 04:58:00;;;;;;;13.07;7.85;;;13.20;99.90;;;;;;5038222;28;20041;-83
2022/10/28 05:00:28;;;;;;;15.55;9.95;;;13.30;99.90;;;;;;5047613;28;20080;-84
2022/10/28 05:02:54;;;;;;;13.00;8.93;;;13.20;99.90;;;;;;5045128;28;20040;-80
2022/10/28 05:05:20;;;;;;;12.00;8.95;;;13.30;99.90;;;;;;5040120;28;20145;-80
2022/10/28 05:07:46;;;;;;;13.57;9.52;;;13.20;99.90;;;;;;5039216;28;20127;-80
2022/10/28 05:10:14;;;;;;;9.13;8.15;;;13.20;99.90;;;;;;5050940;28;20119;-81
2022/10/28 05:12:44;;;;;;;16.63;9.85;;;13.20;99.90;;;;;;5039523;28;20056;-80
2022/10/28 05:15:10;;;;;;;10.75;7.25;;;13.20;99.90;;;;;;5041015;28;20484;-84
2022/10/28 05:17:43;;;;;;;17.27;10.10;;;13.10;99.90;;;;;;5040641;28;20048;-81
2022/10/28 05:20:10;;;;;;;10.23;7.60;;;13.10;99.90;;;;;;5040100;28;20626;-83
2022/10/28 05:22:37;;;;;;;12.25;9.60;;;13.10;99.90;;;;;;5040506;28;20056;-80
2022/10/28 05:25:03;;;;;;;12.60;8.68;;;13.00;99.90;;;;;;5056553;28;20040;-83
2022/10/28 05:27:29;;;;;;;12.18;8.63;;;13.00;99.90;;;;;;5045173;28;20170;-82
2022/10/28 05:29:54;;;;;;;14.07;8.48;;;13.00;99.90;;;;;;5038954;28;20132;-83
2022/10/28 05:32:20;;;;;;;12.35;8.48;;;13.00;99.90;;;;;;5038952;28;20057;-85
2022/10/28 05:34:45;;;;;;;11.25;6.15;;;13.00;99.90;;;;;;5038592;28;20048;-83
2022/10/28 05:37:11;;;;;;;13.30;8.00;;;13.00;99.90;;;;;;5049306;28;20055;-83
2022/10/28 05:39:37;;;;;;;11.02;7.82;;;12.90;99.90;;;;;;5042898;28;20048;-81
2022/10/28 05:42:03;;;;;;;11.80;9.13;;;12.90;99.90;;;;;;5048809;28;20107;-80
2022/10/28 05:44:28;;;;;;;14.25;8.77;;;12.90;99.90;;;;;;5042652;28;20060;-81
2022/10/28 05:46:55;;;;;;;11.07;9.68;;;12.90;99.90;;;;;;5040765;28;20501;-83
2022/10/28 05:49:21;;;;;;;10.02;7.55;;;12.80;99.90;;;;;;5036262;28;20088;-82
2022/10/28 05:51:47;;;;;;;11.13;8.18;;;12.80;99.90;;;;;;5045505;28;20059;-82
2022/10/28 05:54:13;;;;;;;13.27;8.40;;;12.80;99.90;;;;;;5042197;28;20048;-82
2022/10/28 05:56:38;;;;;;;11.10;7.68;;;12.80;99.90;;;;;;5053126;28;20052;-82
2022/10/28 05:59:04;;;;;;;8.65;6.22;;;12.80;99.90;;;;;;5041924;28;20056;-80
2022/10/28 06:01:30;;;;;;;9.82;7.72;;;12.80;99.90;;;;;;5045352;28;20052;-83
2022/10/28 06:03:55;;;;;;;11.32;7.28;;;12.80;99.90;;;;;;5037664;28;20504;-79
2022/10/28 06:06:21;;;;;;;10.32;7.25;;;12.70;99.90;;;;;;5042935;28;20040;-82
2022/10/28 06:08:46;;;;;;;13.52;7.88;;;12.70;99.90;;;;;;5049513;28;20044;-81
2022/10/28 06:11:12;;;;;;;12.65;8.57;;;12.70;99.90;;;;;;5044355;28;20045;-82
2022/10/28 06:13:38;;;;;;;10.63;8.32;;;12.70;99.90;;;;;;5037054;28;20088;-82
2022/10/28 06:16:04;;;;;;;8.70;7.65;;;12.70;99.90;;;;;;5039515;28;20060;-81
2022/10/28 06:18:30;;;;;;;10.93;7.97;;;12.70;99.90;;;;;;5055460;28;20075;-82
2022/10/28 06:20:57;;;;;;;11.45;8.48;;;12.70;99.90;;;;;;5021037;28;20555;-82
2022/10/28 06:23:24;;;;;;;9.15;7.13;;;12.70;99.90;;;;;;5044017;28;20052;-82
2022/10/28 06:25:50;;;;;;;14.48;9.00;;;12.60;99.90;;;;;;5050054;28;20863;-82
2022/10/28 06:28:16;;;;;;;10.40;7.40;;;12.70;99.90;;;;;;5046400;28;20497;-79
2022/10/28 06:30:42;;;;;;;10.35;8.05;;;12.60;99.90;;;;;;5038176;28;20128;-80
2022/10/28 06:33:08;;;;;;;10.00;7.35;;;12.70;99.90;;;;;;5047563;28;20048;-80
2022/10/28 06:35:33;;;;;;;12.00;8.05;;;12.60;99.90;;;;;;5053489;28;20079;-83
2022/10/28 06:37:59;;;;;;;13.90;7.10;;;12.70;99.90;;;;;;5047144;28;20068;-80
2022/10/28 06:40:26;;;;;;;11.60;7.65;;;12.70;99.90;;;;;;5037893;28;20058;-83
2022/10/28 06:43:05;;;;;;;12.50;8.80;;;12.70;99.90;;;;;;5041232;28;20048;-83
2022/10/28 06:45:33;;;;;;;13.23;8.38;;;12.70;99.90;;;;;;5037233;28;20053;-81
2022/10/28 06:48:02;;;;;;;13.50;8.38;;;12.70;99.90;;;;;;5041265;28;20752;-83
2022/10/28 06:50:29;;;;;;;13.18;8.77;;;12.80;99.90;;;;;;5048167;28;20417;-83
2022/10/28 06:52:56;;;;;;;16.58;9.85;;;12.80;99.90;;;;;;5042025;28;20059;-82
2022/10/28 06:55:22;;;;;;;12.00;8.68;;;13.10;99.90;;;;;;5043651;28;20076;-81
2022/10/28 06:57:48;;;;;;;13.70;8.55;;;12.90;99.90;;;;;;5044361;28;20140;-79
2022/10/28 07:00:14;;;;;;;20.17;10.20;;;13.00;99.90;;;;;;5051548;28;20055;-82
2022/10/28 07:02:40;;;;;;;19.85;10.18;;;13.00;99.90;;;;;;5038109;28;20098;-83
2022/10/28 07:05:06;;;;;;;17.60;10.55;;;13.10;99.90;;;;;;5041242;28;20060;-78
2022/10/28 07:07:32;;;;;;;15.65;10.55;;;13.30;99.90;;;;;;5049863;28;20049;-80
2022/10/28 07:09:58;;;;;;;13.00;8.23;;;13.30;99.90;;;;;;5038317;28;20734;-82
2022/10/28 07:12:26;;;;;;;18.33;10.57;;;13.50;99.90;;;;;;5043582;28;20052;-79
2022/10/28 07:14:52;;;;;;;14.65;9.60;;;13.60;99.90;;;;;;5036554;28;20045;-81
2022/10/28 07:17:17;;;;;;;16.88;10.48;;;13.70;99.90;;;;;;5039243;28;20053;-83
2022/10/28 07:19:43;;;;;;;13.93;8.82;;;13.80;99.90;;;;;;5044260;28;20044;-82
2022/10/28 07:22:09;;;;;;;15.82;9.65;;;13.90;99.90;;;;;;5056686;28;20056;-83
2022/10/28 07:24:34;;;;;;;15.63;9.73;;;13.90;99.90;;;;;;5044268;28;20045;-81
2022/10/28 07:27:00;;;;;;;10.98;8.52;;;14.10;99.90;;;;;;5040512;28;20535;-83
2022/10/28 07:29:26;;;;;;;16.58;9.75;;;14.20;99.90;;;;;;5038497;28;20097;-80
2022/10/28 07:31:54;;;;;;;13.18;9.27;;;14.30;99.90;;;;;;5045753;28;20102;-80
2022/10/28 07:34:20;;;;;;;16.15;9.40;;;14.40;99.90;;;;;;5041974;28;20091;-84
2022/10/28 07:36:53;;;;;;;15.05;9.38;;;14.50;99.90;;;;;;5044780;28;20127;-81
2022/10/28 07:39:19;;;;;;;17.88;8.65;;;14.50;99.90;;;;;;5041189;28;20056;-80
2022/10/28 07:41:45;;;;;;;14.40;8.27;;;14.60;99.90;;;;;;5045484;28;20844;-80
2022/10/28 07:44:11;;;;;;;10.57;7.57;;;14.70;99.90;;;;;;5045602;28;20049;-80
2022/10/28 07:46:37;;;;;;;15.98;7.93;;;14.70;99.90;;;;;;5042431;28;20067;-82
2022/10/28 07:49:02;;;;;;;11.98;7.97;;;14.90;99.90;;;;;;5044628;28;20702;-83
2022/10/28 07:51:28;;;;;;;16.50;8.40;;;14.90;99.90;;;;;;5045669;28;20174;-79
2022/10/28 07:53:55;;;;;;;14.75;8.65;;;15.00;99.90;;;;;;5048345;28;20044;-84
2022/10/28 07:56:21;;;;;;;16.90;9.02;;;15.00;99.90;;;;;;5051930;28;20085;-84
2022/10/28 07:58:46;;;;;;;14.27;7.65;;;15.10;99.90;;;;;;5049144;28;20169;-83
2022/10/28 08:01:14;;;;;;;13.52;7.63;;;15.20;99.90;;;;;;5046100;28;20508;-83
2022/10/28 08:03:40;;;;;;;13.15;8.13;;;15.30;99.90;;;;;;5047998;28;20476;-81
2022/10/28 08:06:11;;;;;;;11.18;7.85;;;15.40;99.90;;;;;;5054978;28;20063;-82
2022/10/28 08:08:37;;;;;;;15.05;7.55;;;15.50;99.90;;;;;;5049073;28;20048;-81
2022/10/28 08:11:21;;;;;;;9.68;7.13;;;15.60;99.90;;;;;;5053911;28;20072;-82
2022/10/28 08:13:47;;;;;;;12.38;7.47;;;15.70;99.90;;;;;;5051133;28;20056;-81
2022/10/28 08:16:13;;;;;;;11.55;7.47;;;15.70;99.90;;;;;;5050721;28;20087;-80
2022/10/28 08:18:39;;;;;;;14.43;7.00;;;15.80;99.90;;;;;;5049926;28;20041;-79
2022/10/28 08:21:07;;;;;;;11.18;7.05;;;15.60;99.90;;;;;;5051595;28;20060;-80
2022/10/28 08:23:33;;;;;;;9.70;7.32;;;16.00;99.90;;;;;;5052144;28;20049;-82
2022/10/28 08:25:59;;;;;;;11.65;8.10;;;16.10;99.90;;;;;;5052078;28;20508;-79
2022/10/28 08:28:24;;;;;;;12.35;7.07;;;16.10;99.90;;;;;;5050602;28;20044;-79
2022/10/28 08:30:50;;;;;;;14.68;7.82;;;16.10;99.90;;;;;;5036828;28;20809;-82
2022/10/28 08:33:16;;;;;;;14.30;7.05;;;16.20;99.90;;;;;;5047327;28;20516;-81
2022/10/28 08:35:42;;;;;;;8.40;6.15;;;16.30;99.90;;;;;;5052553;28;20043;-81
2022/10/28 08:38:08;;;;;;;13.48;6.38;;;16.30;99.90;;;;;;5046081;28;20044;-83
2022/10/28 08:40:49;;;;;;;13.20;6.85;;;16.40;99.90;;;;;;5049151;28;20048;-81
2022/10/28 08:43:50;;;;;;;11.73;6.68;;;16.50;99.90;;;;;;5043617;28;20405;-78
2022/10/28 08:46:33;;;;;;;12.88;7.55;;;16.60;99.90;;;;;;5032696;28;20052;-79
2022/10/28 08:49:07;;;;;;;6.78;6.07;;;16.80;99.90;;;;;;5047464;28;20060;-78
2022/10/28 08:51:48;;;;;;;11.55;5.80;;;16.90;99.90;;;;;;5051074;28;20567;-79
2022/10/28 08:54:34;;;;;;;10.55;5.90;;;17.00;99.90;;;;;;5052442;28;20071;-79
2022/10/28 08:57:03;;;;;;;10.32;5.97;;;17.10;99.90;;;;;;5041887;28;20042;-79
2022/10/28 08:59:34;;;;;;;14.18;6.40;;;17.20;99.90;;;;;;5049729;28;20568;-80
2022/10/28 09:02:11;;;;;;;9.52;6.95;;;17.30;99.90;;;;;;5044889;28;20057;-84
2022/10/28 09:04:42;;;;;;;8.88;5.60;;;17.40;99.90;;;;;;5042857;28;20053;-84
2022/10/28 09:07:17;;;;;;;12.85;6.47;;;17.40;99.90;;;;;;5046990;28;20720;-78
2022/10/28 09:09:44;;;;;;;11.60;6.07;;;17.50;99.90;;;;;;5038427;28;20121;-82
2022/10/28 09:12:39;;;;;;;10.35;7.35;;;17.60;99.90;;;;;;5044665;28;20138;-79
2022/10/28 09:15:26;;;;;;;9.90;6.82;;;17.70;99.90;;;;;;5046744;28;20052;-81
2022/10/28 09:17:58;;;;;;;11.38;5.93;;;17.70;99.90;;;;;;5045955;28;20057;-80
2022/10/28 09:20:53;;;;;;;11.93;5.78;;;17.80;99.90;;;;;;5046724;28;20224;-81
2022/10/28 09:23:30;;;;;;;15.27;5.10;;;17.80;99.90;;;;;;5045090;28;20049;-79
2022/10/28 09:26:10;;;;;;;11.65;5.85;;;17.80;99.90;;;;;;5046850;28;20048;-79
2022/10/28 09:28:48;;;;;;;8.98;4.78;;;17.90;99.90;;;;;;5051193;28;20049;-80
2022/10/28 09:31:20;;;;;;;14.27;5.95;;;17.80;99.90;;;;;;5045207;28;20056;-81
2022/10/28 09:34:13;;;;;;;11.48;5.55;;;17.90;99.90;;;;;;5043520;28;20053;-82
2022/10/28 09:36:44;;;;;;;10.77;5.10;;;17.90;99.90;;;;;;5044028;28;20393;-80
2022/10/28 09:39:23;;;;;;;11.40;6.22;;;18.00;99.90;;;;;;5051106;28;20049;-80
2022/10/28 09:41:50;;;;;;;15.25;5.85;;;18.00;99.90;;;;;;5040353;28;20833;-80
2022/10/28 09:44:19;;;;;;;12.80;5.45;;;18.10;99.90;;;;;;5049697;28;20059;-80
2022/10/28 09:46:49;;;;;;;17.98;5.47;;;18.10;99.90;;;;;;5051275;28;20051;-81
2022/10/28 09:49:24;;;;;;;9.27;5.65;;;18.10;99.90;;;;;;5046972;28;20155;-80
2022/10/28 09:52:10;;;;;;;11.27;5.15;;;18.20;99.90;;;;;;5051462;28;20048;-80
2022/10/28 09:54:40;;;;;;;19.13;7.50;;;18.20;99.90;;;;;;5048094;28;20144;-82
2022/10/28 09:57:06;;;;;;;9.27;4.72;;;18.20;99.90;;;;;;5040676;28;20057;-81
2022/10/28 09:59:33;;;;;;;10.90;6.35;;;18.30;99.90;;;;;;5047285;28;20106;-82
2022/10/28 10:01:59;;;;;;;12.23;5.57;;;18.30;99.90;;;;;;5045848;28;20060;-80
2022/10/28 10:04:27;;;;;;;10.70;5.85;;;18.30;99.90;;;;;;5037089;28;20495;-81
2022/10/28 10:07:09;;;;;;;12.90;5.97;;;18.30;99.90;;;;;;5049311;28;20457;-81
2022/10/28 10:09:37;;;;;;;7.93;5.78;;;18.30;99.90;;;;;;5039844;28;20041;-81
2022/10/28 10:12:11;;;;;;;10.52;5.93;;;18.30;99.90;;;;;;5039228;28;20768;-82
2022/10/28 10:14:52;;;;;;;10.82;6.07;;;18.40;99.90;;;;;;5037995;28;20052;-82
2022/10/28 10:17:23;;;;;;;8.70;5.43;;;18.40;99.90;;;;;;5055114;28;20738;-79
2022/10/28 10:20:07;;;;;;;16.80;7.00;;;18.40;99.90;;;;;;5044026;28;20053;-82
2022/10/28 10:22:38;;;;;;;11.07;5.57;;;18.50;99.90;;;;;;5051170;28;20048;-80
2022/10/28 10:25:28;;;;;;;9.77;5.43;;;18.50;99.90;;;;;;5048004;28;20121;-82
2022/10/28 10:27:58;;;;;;;8.90;5.20;;;18.60;99.90;;;;;;5045791;28;20045;-81
2022/10/28 10:30:36;;;;;;;10.13;5.60;;;18.50;99.90;;;;;;5043174;28;20051;-80
2022/10/28 10:33:03;;;;;;;11.82;6.18;;;18.60;99.90;;;;;;5045259;28;20054;-84
2022/10/28 10:35:31;;;;;;;13.15;6.32;;;18.60;99.90;;;;;;5048049;28;20049;-81
2022/10/28 10:37:59;;;;;;;10.40;4.90;;;18.60;99.90;;;;;;5051192;28;20040;-84
2022/10/28 10:40:33;;;;;;;7.97;5.45;;;18.60;99.90;;;;;;5047742;28;20136;-85
2022/10/28 10:43:16;;;;;;;13.48;5.80;;;18.70;99.90;;;;;;5048394;28;20040;-83
2022/10/28 10:45:52;;;;;;;11.10;5.07;;;18.80;99.90;;;;;;5045576;28;20049;-84
2022/10/28 10:48:17;;;;;;;11.45;5.30;;;18.90;99.90;;;;;;5049265;28;20051;-84
2022/10/28 10:50:48;;;;;;;10.90;5.38;;;19.00;99.90;;;;;;5047223;28;20052;-85
2022/10/28 10:53:29;;;;;;;11.82;5.72;;;19.10;99.90;;;;;;5049492;28;20767;-85
2022/10/28 10:56:00;;;;;;;11.68;4.70;;;19.10;99.90;;;;;;5046597;28;20036;-84
2022/10/28 10:58:36;;;;;;;11.93;5.20;;;19.20;99.90;;;;;;5051000;28;20112;-85
2022/10/28 11:01:04;;;;;;;8.77;4.95;;;19.30;99.90;;;;;;5044760;28;20060;-86
2022/10/28 11:03:56;;;;;;;10.35;4.82;;;19.40;99.90;;;;;;5043258;28;20781;-84
2022/10/28 11:06:31;;;;;;;7.95;4.85;;;19.50;99.90;;;;;;5045392;28;20045;-86
2022/10/28 11:09:04;;;;;;;6.90;5.18;;;19.60;99.90;;;;;;5046439;28;20055;-86
2022/10/28 11:11:38;;;;;;;12.85;5.35;;;19.70;99.90;;;;;;5041418;28;20311;-86
2022/10/28 11:14:12;;;;;;;9.52;6.07;;;19.70;99.90;;;;;;5051429;28;20048;-87
2022/10/28 11:16:49;;;;;;;10.23;4.90;;;19.70;99.90;;;;;;5053545;28;20051;-84
2022/10/28 11:19:33;;;;;;;8.38;5.13;;;19.80;99.90;;;;;;5053603;28;20051;-81
2022/10/28 11:22:30;;;;;;;10.38;5.20;;;19.80;99.90;;;;;;5045340;28;20049;-83
2022/10/28 11:25:34;;;;;;;8.55;4.38;;;19.80;99.90;;;;;;5049525;28;20118;-83
2022/10/28 11:28:39;;;;;;;8.43;5.20;;;20.00;99.90;;;;;;4981684;28;20265;-83
2022/10/28 11:31:07;;;;;;;13.18;4.97;;;20.10;99.90;;;;;;4970701;28;20062;-75
2022/10/28 11:34:19;;;;;;;12.15;4.43;;;20.20;99.90;;;;;;5036073;28;20552;-82
2022/10/28 11:36:58;;;;;;;12.02;5.38;;;20.40;99.90;;;;;;5071579;28;20029;-86
2022/10/28 11:39:36;;;;;;;9.02;4.57;;;20.50;99.90;;;;;;5086101;28;20071;-78
2022/10/28 11:42:31;;;;;;;12.55;5.47;;;20.50;99.90;;;;;;5051005;28;20043;-83
2022/10/28 11:45:15;;;;;;;11.45;5.00;;;20.60;99.90;;;;;;5043743;28;20053;-84
2022/10/28 11:47:40;;;;;;;10.77;5.60;;;20.50;99.90;;;;;;5054270;28;20048;-82
2022/10/28 11:50:29;;;;;;;9.43;4.57;;;20.50;99.90;;;;;;5042747;28;20146;-82
2022/10/28 11:53:11;;;;;;;13.25;5.47;;;20.50;99.90;;;;;;5053635;28;20063;-85
2022/10/28 11:55:46;;;;;;;9.00;5.03;;;20.40;99.90;;;;;;5054003;28;20373;-83
2022/10/28 11:58:42;;;;;;;12.00;5.07;;;20.50;99.90;;;;;;5042858;28;20045;-81
2022/10/28 12:01:45;;;;;;;11.63;5.00;;;20.50;99.90;;;;;;5044812;28;20060;-84
2022/10/28 12:04:13;;;;;;;9.63;4.85;;;20.60;99.90;;;;;;5044923;28;20619;-83
2022/10/28 12:07:04;;;;;;;9.25;4.82;;;20.60;99.90;;;;;;5051481;28;20063;-84
2022/10/28 12:09:47;;;;;;;13.48;5.28;;;20.60;99.90;;;;;;5045728;28;20053;-84
2022/10/28 12:12:51;;;;;;;11.43;5.03;;;20.70;99.90;;;;;;5050540;28;20190;-87
2022/10/28 12:15:16;;;;;;;;;;;20.60;99.90;;;;;;5042160;28;20060;-85
2022/10/28 12:17:52;;;;;;;11.38;5.45;;;20.70;99.90;;;;;;5046413;28;19971;-83
2022/10/28 12:20:46;;;;;;;8.45;4.78;;;20.70;99.90;;;;;;5044633;28;20572;-82
2022/10/28 12:23:16;;;;;;;8.70;4.57;;;20.60;99.90;;;;;;5044474;28;20049;-85
2022/10/28 12:25:46;;;;;;;16.58;5.57;;;20.60;99.90;;;;;;5045108;28;20060;-87
2022/10/28 12:28:21;;;;;;;14.48;5.78;;;20.60;99.90;;;;;;5044743;28;20045;-84
2022/10/28 12:30:49;;;;;;;13.27;5.18;;;20.60;99.90;;;;;;5041432;28;20099;-85
2022/10/28 12:33:23;;;;;;;14.32;5.32;;;20.60;99.90;;;;;;5042546;28;20056;-87
2022/10/28 12:36:11;;;;;;;10.27;5.25;;;20.60;99.90;;;;;;5042788;28;20049;-86
2022/10/28 12:38:56;;;;;;;10.48;5.40;;;20.70;99.90;;;;;;5047132;28;20047;-86
2022/10/28 12:41:48;;;;;;;7.70;4.97;;;20.70;99.90;;;;;;5042577;28;20208;-86
2022/10/28 12:44:19;;;;;;;11.60;5.07;;;20.60;99.90;;;;;;5041741;28;20085;-86
2022/10/28 12:47:01;;;;;;;12.38;5.35;;;20.60;99.90;;;;;;5039812;28;20501;-85
2022/10/28 12:50:04;;;;;;;10.05;4.97;;;20.60;99.90;;;;;;5042312;28;20074;-86
2022/10/28 12:52:49;;;;;;;9.32;5.38;;;20.60;99.90;;;;;;5040636;28;20583;-87
2022/10/28 12:55:36;;;;;;;12.75;5.00;;;20.60;99.90;;;;;;5039750;28;20118;-87
2022/10/28 12:58:08;;;;;;;11.95;5.13;;;20.60;99.90;;;;;;5071818;28;20589;-91
2022/10/28 13:00:42;;;;;;;10.23;5.10;;;20.60;99.90;;;;;;5054837;28;20110;-81
2022/10/28 13:03:13;;;;;;;11.82;4.93;;;20.60;99.90;;;;;;5049453;28;20053;-83